createdAt,value
2017-12-20T00:00:01.562Z,22.47
2017-12-20T00:02:27.774Z,23.00
2017-12-20T00:04:53.968Z,23.70
2017-12-20T00:07:20.197Z,25.53
2017-12-20T00:09:46.383Z,25.70
2017-12-20T00:12:12.562Z,26.23
2017-12-20T00:14:38.794Z,27.00
2017-12-20T00:17:05.146Z,24.93
2017-12-20T00:19:31.582Z,26.73
2017-12-20T00:21:57.943Z,25.67
2017-12-20T00:24:24.120Z,27.10
2017-12-20T00:26:50.525Z,26.13
2017-12-20T00:29:16.815Z,21.30
2017-12-20T00:31:43.339Z,23.90
2017-12-20T00:34:09.771Z,27.77
2017-12-20T00:36:36.012Z,28.13
2017-12-20T00:39:02.422Z,25.40
2017-12-20T00:41:28.614Z,22.80
2017-12-20T00:43:54.837Z,25.50
2017-12-20T00:46:21.284Z,22.20
2017-12-20T00:48:47.554Z,22.20
2017-12-20T00:51:13.917Z,22.33
2017-12-20T00:53:40.101Z,23.43
2017-12-20T00:56:06.351Z,23.63
2017-12-20T00:58:32.671Z,25.50
2017-12-20T01:00:58.889Z,25.00
2017-12-20T01:03:25.073Z,23.70
2017-12-20T01:05:51.356Z,23.73
2017-12-20T01:08:17.551Z,23.67
2017-12-20T01:10:43.744Z,23.20
2017-12-20T01:13:10.193Z,23.67
2017-12-20T01:15:36.465Z,24.27
2017-12-20T01:18:02.691Z,25.37
2017-12-20T01:20:28.895Z,22.77
2017-12-20T01:22:55.150Z,25.00
2017-12-20T01:25:21.325Z,24.90
2017-12-20T01:27:47.575Z,25.70
2017-12-20T01:30:13.838Z,26.43
2017-12-20T01:32:40.033Z,29.60
2017-12-20T01:35:06.246Z,28.57
2017-12-20T01:37:32.440Z,29.10
2017-12-20T01:39:58.764Z,29.63
2017-12-20T01:42:24.985Z,23.47
2017-12-20T01:44:51.220Z,26.50
2017-12-20T01:47:17.439Z,27.50
2017-12-20T01:49:43.882Z,27.17
2017-12-20T01:52:10.082Z,26.60
2017-12-20T01:54:36.269Z,28.47
2017-12-20T01:57:02.489Z,27.60
2017-12-20T01:59:28.784Z,25.37
2017-12-20T02:01:55.011Z,26.97
2017-12-20T02:04:21.229Z,28.00
2017-12-20T02:06:47.481Z,27.57
2017-12-20T02:09:13.701Z,25.90
2017-12-20T02:11:40.350Z,24.77
2017-12-20T02:14:06.634Z,23.93
2017-12-20T02:16:32.825Z,23.67
2017-12-20T02:18:59.292Z,24.80
2017-12-20T02:21:25.676Z,20.30
2017-12-20T02:23:51.891Z,23.80
2017-12-20T02:26:18.117Z,26.30
2017-12-20T02:28:44.295Z,23.93
2017-12-20T02:31:10.473Z,21.90
2017-12-20T02:33:36.698Z,25.50
2017-12-20T02:36:02.877Z,25.00
2017-12-20T02:38:29.267Z,27.10
2017-12-20T02:40:55.485Z,30.97
2017-12-20T02:43:21.883Z,31.23
2017-12-20T02:45:48.156Z,31.17
2017-12-20T02:48:14.599Z,31.37
2017-12-20T02:50:40.821Z,33.80
2017-12-20T02:53:07.010Z,31.30
2017-12-20T02:55:33.233Z,31.17
2017-12-20T02:57:59.411Z,35.20
2017-12-20T03:00:25.603Z,34.83
2017-12-20T03:02:51.830Z,32.07
2017-12-20T03:05:18.196Z,34.53
2017-12-20T03:07:44.397Z,35.67
2017-12-20T03:10:10.861Z,34.53
2017-12-20T03:12:37.088Z,33.27
2017-12-20T03:15:03.317Z,31.87
2017-12-20T03:17:29.752Z,34.63
2017-12-20T03:19:55.973Z,31.77
2017-12-20T03:22:22.162Z,32.20
2017-12-20T03:24:48.379Z,32.23
2017-12-20T03:27:14.563Z,30.80
2017-12-20T03:29:40.764Z,30.80
2017-12-20T03:32:07.122Z,29.87
2017-12-20T03:34:33.337Z,29.60
2017-12-20T03:36:59.575Z,29.87
2017-12-20T03:39:25.792Z,31.87
2017-12-20T03:41:52.025Z,31.30
2017-12-20T03:44:18.214Z,29.20
2017-12-20T03:46:44.460Z,29.63
2017-12-20T03:49:10.710Z,27.00
2017-12-20T03:51:36.896Z,26.70
2017-12-20T03:54:03.140Z,27.63
2017-12-20T03:56:29.315Z,30.77
2017-12-20T03:58:55.620Z,32.30
2017-12-20T04:01:22.060Z,81.27
2017-12-20T04:03:48.258Z,58.60
2017-12-20T04:06:14.493Z,56.70
2017-12-20T04:08:40.725Z,74.07
2017-12-20T04:11:06.974Z,42.70
2017-12-20T04:13:33.183Z,35.80
2017-12-20T04:15:59.409Z,37.60
2017-12-20T04:18:25.591Z,38.53
2017-12-20T04:20:51.782Z,28.60
2017-12-20T04:23:18.123Z,27.30
2017-12-20T04:25:44.330Z,24.33
2017-12-20T04:28:10.791Z,27.83
2017-12-20T04:30:37.018Z,25.73
2017-12-20T04:33:03.203Z,26.37
2017-12-20T04:35:29.473Z,26.03
2017-12-20T04:37:55.705Z,24.80
2017-12-20T04:40:22.138Z,24.60
2017-12-20T04:42:48.353Z,27.37
2017-12-20T04:45:14.625Z,27.73
2017-12-20T04:47:40.969Z,27.67
2017-12-20T04:50:07.149Z,27.80
2017-12-20T04:52:33.367Z,26.77
2017-12-20T04:54:59.530Z,28.90
2017-12-20T04:57:25.711Z,30.37
2017-12-20T04:59:51.912Z,28.83
2017-12-20T05:02:18.221Z,32.57
2017-12-20T05:04:44.600Z,29.60
2017-12-20T05:07:11.055Z,31.27
2017-12-20T05:09:37.258Z,28.10
2017-12-20T05:12:03.461Z,34.37
2017-12-20T05:14:29.684Z,28.87
2017-12-20T05:16:55.981Z,29.33
2017-12-20T05:19:22.196Z,32.80
2017-12-20T05:21:48.434Z,30.07
2017-12-20T05:24:14.625Z,32.87
2017-12-20T05:26:40.798Z,31.20
2017-12-20T05:29:07.119Z,32.53
2017-12-20T05:31:33.320Z,31.63
2017-12-20T05:33:59.511Z,32.67
2017-12-20T05:36:25.746Z,35.60
2017-12-20T05:38:51.962Z,37.63
2017-12-20T05:41:18.166Z,35.80
2017-12-20T05:43:44.457Z,41.23
2017-12-20T05:46:10.689Z,45.60
2017-12-20T05:48:36.933Z,42.87
2017-12-20T05:51:03.378Z,50.37
2017-12-20T05:53:29.578Z,48.07
2017-12-20T05:55:55.770Z,46.70
2017-12-20T05:58:22.005Z,49.83
2017-12-20T06:00:48.503Z,41.73
2017-12-20T06:03:14.696Z,41.80
2017-12-20T06:05:40.896Z,38.40
2017-12-20T06:08:07.071Z,39.20
2017-12-20T06:10:33.240Z,42.90
2017-12-20T06:12:59.592Z,42.53
2017-12-20T06:15:25.860Z,43.73
2017-12-20T06:17:52.105Z,39.57
2017-12-20T06:20:18.357Z,37.60
2017-12-20T06:22:44.544Z,36.50
2017-12-20T06:25:10.742Z,37.30
2017-12-20T06:27:36.948Z,36.13
2017-12-20T06:30:03.651Z,33.50
2017-12-20T06:32:29.988Z,33.63
2017-12-20T06:34:56.203Z,36.30
2017-12-20T06:37:22.402Z,41.40
2017-12-20T06:39:48.590Z,36.80
2017-12-20T06:42:14.814Z,32.17
2017-12-20T06:44:41.008Z,31.60
2017-12-20T06:47:07.198Z,34.77
2017-12-20T06:49:33.436Z,32.47
2017-12-20T06:51:59.641Z,35.80
2017-12-20T06:54:25.828Z,38.80
2017-12-20T06:56:52.173Z,42.37
2017-12-20T06:59:18.367Z,46.40
2017-12-20T07:01:44.628Z,48.20
2017-12-20T07:04:10.838Z,57.87
2017-12-20T07:06:37.045Z,71.37
2017-12-20T07:09:03.313Z,60.27
2017-12-20T07:11:29.664Z,51.70
2017-12-20T07:13:55.975Z,48.10
2017-12-20T07:16:22.165Z,40.00
2017-12-20T07:18:48.431Z,38.57
2017-12-20T07:21:14.617Z,53.20
2017-12-20T07:23:40.887Z,47.40
2017-12-20T07:26:07.322Z,45.57
2017-12-20T07:28:33.514Z,44.20
2017-12-20T07:30:59.781Z,49.10
2017-12-20T07:33:26.028Z,45.50
2017-12-20T07:35:52.506Z,37.43
2017-12-20T07:38:18.864Z,40.60
2017-12-20T07:40:45.486Z,49.87
2017-12-20T07:43:11.744Z,53.70
2017-12-20T07:45:37.963Z,50.40
2017-12-20T07:48:04.402Z,52.80
2017-12-20T07:50:30.638Z,50.93
2017-12-20T07:52:57.068Z,41.20
2017-12-20T07:55:23.500Z,51.50
2017-12-20T07:57:49.706Z,40.77
2017-12-20T08:00:15.898Z,44.77
2017-12-20T08:02:42.149Z,45.07
2017-12-20T08:05:08.351Z,46.87
2017-12-20T08:07:34.539Z,51.53
2017-12-20T08:10:00.767Z,50.40
2017-12-20T08:12:26.948Z,43.43
2017-12-20T08:14:53.320Z,39.53
2017-12-20T08:17:19.684Z,41.23
2017-12-20T08:19:46.155Z,38.43
2017-12-20T08:22:12.339Z,40.30
2017-12-20T08:24:38.576Z,43.40
2017-12-20T08:27:04.844Z,36.70
2017-12-20T08:29:31.020Z,38.50
2017-12-20T08:31:57.260Z,40.10
2017-12-20T08:34:23.552Z,39.13
2017-12-20T08:36:49.801Z,37.93
2017-12-20T08:39:16.289Z,41.50
2017-12-20T08:41:42.484Z,42.20
2017-12-20T08:44:08.655Z,36.47
2017-12-20T08:46:34.881Z,34.70
2017-12-20T08:49:01.074Z,35.97
2017-12-20T08:51:27.247Z,34.53
2017-12-20T08:53:53.483Z,34.73
2017-12-20T08:56:19.805Z,38.20
2017-12-20T08:58:45.994Z,38.10
2017-12-20T09:01:12.207Z,38.93
2017-12-20T09:03:38.368Z,37.87
2017-12-20T09:06:04.548Z,36.53
2017-12-20T09:08:30.763Z,42.30
2017-12-20T09:10:56.933Z,39.20
2017-12-20T09:13:23.160Z,39.97
2017-12-20T09:15:49.381Z,35.37
2017-12-20T09:18:15.648Z,36.50
2017-12-20T09:20:41.844Z,33.80
2017-12-20T09:23:08.067Z,36.17
2017-12-20T09:25:34.248Z,35.47
2017-12-20T09:28:00.429Z,34.30
2017-12-20T09:30:26.637Z,32.70
2017-12-20T09:32:52.850Z,32.07
2017-12-20T09:35:19.013Z,29.27
2017-12-20T09:37:45.244Z,30.30
2017-12-20T09:40:11.425Z,29.40
2017-12-20T09:42:37.595Z,29.33
2017-12-20T09:45:03.867Z,28.03
2017-12-20T09:47:30.036Z,29.90
2017-12-20T09:49:56.244Z,31.83
2017-12-20T09:52:22.475Z,27.37
2017-12-20T09:54:48.670Z,27.97
2017-12-20T09:57:14.853Z,26.90
2017-12-20T09:59:41.067Z,26.80
2017-12-20T10:02:07.240Z,25.87
2017-12-20T10:04:33.548Z,25.40
2017-12-20T10:07:00.063Z,24.83
2017-12-20T10:09:26.271Z,24.87
2017-12-20T10:11:52.459Z,28.73
2017-12-20T10:14:18.680Z,26.17
2017-12-20T10:16:44.851Z,30.37
2017-12-20T10:19:11.041Z,25.67
2017-12-20T10:21:37.247Z,26.50
2017-12-20T10:24:03.566Z,23.00
2017-12-20T10:26:29.732Z,24.97
2017-12-20T10:28:55.948Z,28.60
2017-12-20T10:31:22.133Z,29.53
2017-12-20T10:33:48.360Z,27.93
2017-12-20T10:36:14.549Z,25.63
2017-12-20T10:38:40.735Z,26.53
2017-12-20T10:41:06.953Z,27.50
2017-12-20T10:43:33.150Z,26.57
2017-12-20T10:45:59.351Z,27.13
2017-12-20T10:48:25.595Z,24.37
2017-12-20T10:50:51.790Z,24.50
2017-12-20T10:53:17.986Z,30.13
2017-12-20T10:55:44.415Z,25.00
2017-12-20T10:58:10.615Z,25.30
2017-12-20T11:00:36.801Z,30.73
2017-12-20T11:03:03.005Z,29.93
2017-12-20T11:05:29.334Z,26.73
2017-12-20T11:07:55.515Z,29.03
2017-12-20T11:10:21.742Z,34.23
2017-12-20T11:12:47.937Z,29.77
2017-12-20T11:15:14.140Z,29.60
2017-12-20T11:17:40.350Z,29.87
2017-12-20T11:20:06.532Z,30.17
2017-12-20T11:22:32.713Z,31.77
2017-12-20T11:24:58.938Z,26.80
2017-12-20T11:27:25.130Z,25.17
2017-12-20T11:29:51.321Z,28.80
2017-12-20T11:32:17.542Z,28.97
2017-12-20T11:34:43.745Z,26.10
2017-12-20T11:37:09.946Z,28.67
2017-12-20T11:39:36.166Z,27.30
2017-12-20T11:42:02.360Z,29.97
2017-12-20T11:44:28.562Z,23.70
2017-12-20T11:46:54.832Z,22.77
2017-12-20T11:49:21.019Z,21.50
2017-12-20T11:51:47.207Z,21.03
2017-12-20T11:54:13.485Z,21.97
2017-12-20T11:56:39.666Z,23.70
2017-12-20T11:59:05.861Z,20.73
2017-12-20T12:01:32.082Z,23.80
2017-12-20T12:03:58.331Z,21.00
2017-12-20T12:06:24.523Z,20.27
2017-12-20T12:08:50.749Z,19.20
2017-12-20T12:11:16.970Z,18.50
2017-12-20T12:13:43.148Z,20.77
2017-12-20T12:16:09.363Z,17.67
2017-12-20T12:18:35.539Z,18.50
2017-12-20T12:21:01.707Z,17.93
2017-12-20T12:23:27.939Z,21.13
2017-12-20T12:25:54.119Z,19.73
2017-12-20T12:28:20.297Z,20.13
2017-12-20T12:30:46.539Z,17.70
2017-12-20T12:33:12.796Z,23.33
2017-12-20T12:35:38.982Z,20.93
2017-12-20T12:38:05.169Z,19.70
2017-12-20T12:40:31.378Z,19.97
2017-12-20T12:42:57.553Z,18.07
2017-12-20T12:45:23.731Z,17.20
2017-12-20T12:47:49.931Z,19.83
2017-12-20T12:50:16.140Z,18.60
2017-12-20T12:52:42.343Z,22.07
2017-12-20T12:55:08.553Z,20.90
2017-12-20T12:57:34.751Z,18.53
2017-12-20T13:00:00.926Z,22.27
2017-12-20T13:02:27.158Z,18.73
2017-12-20T13:04:53.322Z,18.33
2017-12-20T13:07:19.511Z,26.10
2017-12-20T13:09:45.824Z,19.90
2017-12-20T13:12:12.010Z,18.93
2017-12-20T13:14:38.201Z,18.67
2017-12-20T13:17:04.422Z,21.97
2017-12-20T13:19:30.782Z,19.80
2017-12-20T13:21:57.012Z,21.80
2017-12-20T13:24:23.620Z,19.70
2017-12-20T13:26:49.863Z,25.93
2017-12-20T13:29:16.061Z,18.20
2017-12-20T13:31:42.520Z,20.53
2017-12-20T13:34:08.698Z,18.10
2017-12-20T13:36:34.973Z,19.40
2017-12-20T13:39:01.233Z,17.77
2017-12-20T13:41:27.437Z,24.47
2017-12-20T13:43:53.632Z,23.07
2017-12-20T13:46:19.869Z,19.50
2017-12-20T13:48:46.043Z,19.53
2017-12-20T13:51:12.345Z,21.10
2017-12-20T13:53:38.597Z,28.63
2017-12-20T13:56:04.827Z,24.10
2017-12-20T13:58:31.025Z,21.70
2017-12-20T14:00:57.292Z,19.00
2017-12-20T14:03:23.480Z,23.93
2017-12-20T14:05:49.673Z,20.57
2017-12-20T14:08:15.882Z,29.90
2017-12-20T14:10:42.074Z,46.83
2017-12-20T14:13:08.297Z,29.80
2017-12-20T14:15:34.536Z,30.30
2017-12-20T14:18:00.713Z,29.70
2017-12-20T14:20:26.908Z,28.50
2017-12-20T14:22:53.172Z,25.13
2017-12-20T14:25:19.358Z,29.00
2017-12-20T14:27:45.562Z,34.60
2017-12-20T14:30:11.805Z,44.27
2017-12-20T14:32:38.006Z,49.38
2017-12-20T14:35:04.191Z,50.73
2017-12-20T14:37:30.699Z,49.43
2017-12-20T14:39:56.871Z,42.57
2017-12-20T14:42:23.378Z,40.47
2017-12-20T14:44:49.570Z,38.33
2017-12-20T14:47:15.725Z,42.80
2017-12-20T14:49:41.902Z,44.83
2017-12-20T14:52:08.124Z,50.73
2017-12-20T14:54:34.293Z,48.10
2017-12-20T14:57:00.549Z,67.57
2017-12-20T14:59:26.808Z,48.70
2017-12-20T15:01:53.004Z,51.80
2017-12-20T15:04:19.233Z,48.97
2017-12-20T15:06:45.495Z,41.67
2017-12-20T15:09:11.880Z,40.87
2017-12-20T15:11:38.073Z,46.25
2017-12-20T15:14:04.339Z,44.37
2017-12-20T15:16:30.577Z,49.00
2017-12-20T15:18:56.784Z,46.90
2017-12-20T15:21:23.002Z,45.80
2017-12-20T15:23:49.262Z,48.43
2017-12-20T15:26:15.695Z,46.60
2017-12-20T15:28:41.912Z,46.87
2017-12-20T15:31:08.151Z,41.13
2017-12-20T15:33:34.331Z,48.93
2017-12-20T15:36:00.543Z,61.33
2017-12-20T15:38:26.710Z,54.60
2017-12-20T15:40:52.911Z,52.80
2017-12-20T15:43:19.137Z,57.60
2017-12-20T15:45:45.601Z,46.30
2017-12-20T15:48:11.787Z,52.63
2017-12-20T15:50:38.018Z,68.43
2017-12-20T15:53:04.403Z,60.67
2017-12-20T15:55:30.593Z,52.03
2017-12-20T15:57:56.767Z,40.63
2017-12-20T16:00:23.091Z,36.10
2017-12-20T16:02:49.331Z,37.97
2017-12-20T16:05:15.953Z,40.37
2017-12-20T16:07:42.173Z,48.93
2017-12-20T16:10:08.369Z,47.80
2017-12-20T16:12:34.584Z,40.90
2017-12-20T16:15:00.796Z,40.57
2017-12-20T16:17:27.103Z,46.60
2017-12-20T16:19:53.320Z,45.83
2017-12-20T16:22:19.569Z,37.27
2017-12-20T16:24:45.756Z,41.60
2017-12-20T16:27:12.064Z,42.13
2017-12-20T16:29:38.258Z,39.27
2017-12-20T16:32:04.546Z,56.27
2017-12-20T16:34:30.914Z,50.40
2017-12-20T16:36:57.140Z,33.87
2017-12-20T16:39:23.341Z,27.20
2017-12-20T16:41:49.556Z,25.40
2017-12-20T16:44:15.725Z,28.45
2017-12-20T16:46:41.900Z,26.53
2017-12-20T16:49:08.141Z,29.10
2017-12-20T16:51:34.327Z,35.33
2017-12-20T16:54:00.542Z,35.27
2017-12-20T16:56:26.867Z,39.37
2017-12-20T16:58:53.204Z,37.10
2017-12-20T17:01:19.375Z,39.30
2017-12-20T17:03:45.583Z,37.13
2017-12-20T17:06:11.883Z,45.13
2017-12-20T17:08:38.107Z,43.20
2017-12-20T17:11:04.326Z,39.70
2017-12-20T17:13:30.520Z,49.20
2017-12-20T17:15:56.740Z,45.00
2017-12-20T17:18:22.966Z,37.00
2017-12-20T17:20:49.161Z,36.83
2017-12-20T17:23:15.362Z,39.70
2017-12-20T17:25:41.567Z,37.40
2017-12-20T17:28:07.743Z,37.20
2017-12-20T17:30:33.912Z,39.63
2017-12-20T17:33:00.193Z,35.47
2017-12-20T17:35:26.637Z,35.87
2017-12-20T17:37:52.809Z,65.03
2017-12-20T17:40:19.021Z,49.30
2017-12-20T17:42:45.279Z,52.23
2017-12-20T17:45:11.471Z,47.27
2017-12-20T17:47:37.677Z,51.60
2017-12-20T17:50:03.872Z,51.60
2017-12-20T17:52:30.045Z,52.13
2017-12-20T17:54:56.282Z,95.20
2017-12-20T17:57:22.617Z,88.00
2017-12-20T17:59:48.810Z,59.50
2017-12-20T18:02:15.031Z,32.20
2017-12-20T18:04:41.323Z,26.43
2017-12-20T18:07:07.509Z,25.40
2017-12-20T18:09:33.750Z,25.07
2017-12-20T18:11:59.936Z,26.30
2017-12-20T18:14:26.467Z,25.47
2017-12-20T18:16:52.730Z,26.03
2017-12-20T18:19:18.956Z,28.00
2017-12-20T18:21:45.135Z,28.80
2017-12-20T18:24:11.352Z,26.10
2017-12-20T18:26:37.647Z,27.30
2017-12-20T18:29:03.822Z,22.33
2017-12-20T18:31:30.046Z,25.63
2017-12-20T18:33:56.304Z,22.67
2017-12-20T18:36:22.478Z,25.03
2017-12-20T18:38:48.710Z,23.97
2017-12-20T18:41:14.908Z,26.33
2017-12-20T18:43:41.224Z,26.90
2017-12-20T18:46:07.467Z,25.47
2017-12-20T18:48:33.648Z,26.43
2017-12-20T18:50:59.909Z,25.03
2017-12-20T18:53:26.145Z,25.27
2017-12-20T18:55:52.386Z,25.57
2017-12-20T18:58:18.574Z,24.80
2017-12-20T19:00:45.048Z,23.73
2017-12-20T19:03:11.277Z,25.50
2017-12-20T19:05:37.473Z,25.73
2017-12-20T19:08:03.694Z,24.97
2017-12-20T19:10:29.860Z,23.50
2017-12-20T19:12:56.169Z,24.80
2017-12-20T19:15:22.382Z,26.60
2017-12-20T19:17:48.571Z,20.30
2017-12-20T19:20:14.760Z,20.80
2017-12-20T19:22:41.253Z,19.50
2017-12-20T19:25:07.700Z,20.77
2017-12-20T19:27:33.880Z,22.50
2017-12-20T19:30:00.198Z,22.40
2017-12-20T19:32:26.451Z,21.60
2017-12-20T19:34:52.637Z,26.70
2017-12-20T19:37:19.093Z,42.90
2017-12-20T19:39:45.302Z,31.27
2017-12-20T19:42:11.519Z,34.97
2017-12-20T19:44:37.723Z,25.17
2017-12-20T19:47:03.990Z,31.97
2017-12-20T19:49:30.160Z,28.57
2017-12-20T19:51:56.377Z,26.93
2017-12-20T19:54:22.555Z,27.60
2017-12-20T19:56:48.747Z,25.77
2017-12-20T19:59:14.950Z,24.63
2017-12-20T20:01:41.113Z,23.73
2017-12-20T20:04:07.406Z,29.60
2017-12-20T20:06:33.626Z,28.83
2017-12-20T20:08:59.853Z,22.67
2017-12-20T20:11:26.071Z,20.60
2017-12-20T20:13:52.317Z,19.00
2017-12-20T20:16:18.669Z,18.47
2017-12-20T20:18:45.014Z,20.83
2017-12-20T20:21:11.415Z,19.87
2017-12-20T20:23:37.598Z,20.10
2017-12-20T20:26:03.868Z,21.30
2017-12-20T20:28:30.100Z,23.57
2017-12-20T20:30:56.300Z,26.20
2017-12-20T20:33:22.475Z,24.70
2017-12-20T20:35:48.764Z,26.37
2017-12-20T20:38:14.983Z,31.00
2017-12-20T20:40:41.163Z,32.83
2017-12-20T20:43:07.475Z,37.77
2017-12-20T20:45:33.687Z,38.90
2017-12-20T20:47:59.848Z,25.80
2017-12-20T20:50:26.137Z,26.40
2017-12-20T20:52:52.335Z,24.03
2017-12-20T20:55:18.501Z,22.53
2017-12-20T20:57:44.701Z,22.27
2017-12-20T21:00:10.883Z,21.17
2017-12-20T21:02:37.078Z,21.40
2017-12-20T21:05:03.516Z,20.97
2017-12-20T21:07:29.690Z,19.70
2017-12-20T21:09:55.866Z,22.47
2017-12-20T21:12:22.095Z,24.95
2017-12-20T21:14:48.269Z,21.40
2017-12-20T21:17:14.503Z,23.52
2017-12-20T21:19:40.889Z,24.00
2017-12-20T21:22:07.112Z,19.63
2017-12-20T21:24:33.786Z,24.50
2017-12-20T21:27:00.195Z,22.87
2017-12-20T21:29:26.356Z,22.77
2017-12-20T21:31:52.548Z,26.70
2017-12-20T21:34:18.766Z,25.00
2017-12-20T21:36:45.075Z,23.90
2017-12-20T21:39:11.347Z,22.23
2017-12-20T21:41:37.545Z,22.87
2017-12-20T21:44:03.803Z,26.10
2017-12-20T21:46:29.980Z,23.47
2017-12-20T21:48:56.256Z,19.77
2017-12-20T21:51:22.445Z,22.37
2017-12-20T21:53:48.620Z,28.37
2017-12-20T21:56:14.927Z,24.17
2017-12-20T21:58:41.177Z,24.60
2017-12-20T22:01:07.377Z,27.63
2017-12-20T22:03:33.603Z,23.57
2017-12-20T22:05:59.858Z,27.03
2017-12-20T22:08:26.087Z,26.17
2017-12-20T22:10:52.291Z,24.50
2017-12-20T22:13:18.526Z,22.30
2017-12-20T22:15:44.712Z,24.90
2017-12-20T22:18:10.942Z,21.67
2017-12-20T22:20:37.400Z,23.87
2017-12-20T22:23:03.664Z,20.73
2017-12-20T22:25:29.902Z,26.63
2017-12-20T22:27:56.082Z,28.27
2017-12-20T22:30:22.555Z,23.40
2017-12-20T22:32:48.752Z,28.53
2017-12-20T22:35:14.988Z,25.63
2017-12-20T22:37:41.206Z,22.57
2017-12-20T22:40:07.429Z,20.87
2017-12-20T22:42:33.601Z,21.97
2017-12-20T22:44:59.842Z,21.33
2017-12-20T22:47:26.056Z,19.93
2017-12-20T22:49:52.278Z,22.05
2017-12-20T22:52:18.461Z,21.93
2017-12-20T22:54:44.670Z,20.60
2017-12-20T22:57:11.058Z,25.17
2017-12-20T22:59:37.274Z,24.83
2017-12-20T23:02:03.507Z,23.67
2017-12-20T23:04:29.725Z,23.53
2017-12-20T23:06:55.905Z,24.27
2017-12-20T23:09:22.123Z,21.57
2017-12-20T23:11:48.293Z,19.00
2017-12-20T23:14:14.668Z,19.97
2017-12-20T23:16:40.886Z,20.93
2017-12-20T23:19:07.083Z,20.53
2017-12-20T23:21:33.351Z,29.30
2017-12-20T23:23:59.565Z,22.17
2017-12-20T23:26:25.787Z,21.20
2017-12-20T23:28:52.067Z,22.62
2017-12-20T23:31:18.679Z,22.33
2017-12-20T23:33:44.900Z,20.30
2017-12-20T23:36:11.081Z,21.10
2017-12-20T23:38:37.370Z,22.40
2017-12-20T23:41:03.975Z,21.40
2017-12-20T23:43:30.221Z,22.40
2017-12-20T23:45:56.439Z,22.70
2017-12-20T23:48:22.871Z,19.00
2017-12-20T23:50:49.106Z,19.40
2017-12-20T23:53:15.336Z,20.37
2017-12-20T23:55:41.579Z,19.40
2017-12-20T23:58:07.772Z,19.17
